Terminal Aerodrome Forecast
Issued by NWS

Home | Current Version | Previous Version | Text Only | Print | Product List | Glossary On
Versions: 1 2 3 4 5 6 7 8 9 10 11 12 13 14 15 16 17 18 19 20 21 22 23 24 25 26 27 28 29 30
000
FTUS44 KEWX 261144
TAFSSF
TAF
KSSF 261144Z 2612/2712 00000KT P6SM BKN015 BKN150 OVC250
     FM261500 08005KT P6SM BKN025
     FM261700 10008KT P6SM VCTS BKN050CB
      TEMPO 2617/2621 3SM TSRA BR BKN050CB
     FM262300 13007KT P6SM VCSH BKN100
     FM270200 10005KT P6SM BKN250=

USA.gov is the U.S. government's official web portal to all federal, state and local government web resources and services.